Time;durP1;ratioP1;P1;durP2;ratioP2;P2;SDS_P1;SDS_P2;PMS_P1;PMS_P2;Temp;Humidity;BMP_temperature;BMP_pressure;BME280_temperature;BME280_humidity;BME280_pressure;Samples;Min_cycle;Max_cycle;Signal;HPM_P1;HPM_P2
2021/08/27 00:01:28;;;;;;;3.35;3.10;;;17.30;62.00;;;;;;5055928;28;20032;-84
2021/08/27 00:03:54;;;;;;;3.38;3.13;;;17.30;62.10;;;;;;5037947;28;20041;-82
2021/08/27 00:06:21;;;;;;;3.00;2.90;;;17.30;62.20;;;;;;5039425;28;20033;-83
2021/08/27 00:08:47;;;;;;;3.00;2.90;;;17.20;62.20;;;;;;5057690;28;20040;-82
2021/08/27 00:11:14;;;;;;;3.60;3.40;;;17.20;62.20;;;;;;5056859;28;20036;-81
2021/08/27 00:13:41;;;;;;;3.63;3.42;;;17.20;62.20;;;;;;5058065;28;20502;-83
2021/08/27 00:16:07;;;;;;;2.88;2.78;;;17.20;62.30;;;;;;5056811;28;20400;-83
2021/08/27 00:18:33;;;;;;;3.00;2.90;;;17.10;62.20;;;;;;5054167;28;20029;-84
2021/08/27 00:20:59;;;;;;;3.28;3.08;;;17.10;62.30;;;;;;5042341;28;20383;-84
2021/08/27 00:23:26;;;;;;;3.00;2.90;;;17.10;62.30;;;;;;5055270;28;20044;-84
2021/08/27 00:25:52;;;;;;;3.40;3.20;;;17.10;62.40;;;;;;5057813;28;20044;-83
2021/08/27 00:28:18;;;;;;;3.40;3.20;;;17.00;62.50;;;;;;5057751;28;20469;-84
2021/08/27 00:30:44;;;;;;;10.82;3.22;;;16.90;62.50;;;;;;5051697;28;20037;-84
2021/08/27 00:33:10;;;;;;;3.47;3.28;;;16.90;62.70;;;;;;5041395;28;20044;-83
2021/08/27 00:35:36;;;;;;;3.33;3.13;;;16.90;62.70;;;;;;5056396;28;20029;-83
2021/08/27 00:38:02;;;;;;;3.03;2.92;;;16.80;62.80;;;;;;5057562;28;20025;-83
2021/08/27 00:40:28;;;;;;;3.47;3.28;;;16.80;62.90;;;;;;5054958;28;20052;-83
2021/08/27 00:42:55;;;;;;;2.83;2.70;;;16.80;63.00;;;;;;5054979;28;20032;-85
2021/08/27 00:45:21;;;;;;;2.85;2.75;;;16.70;63.00;;;;;;5054266;28;20389;-83
2021/08/27 00:47:47;;;;;;;3.40;3.20;;;16.70;63.00;;;;;;5058663;28;20032;-82
2021/08/27 00:50:13;;;;;;;3.20;3.00;;;16.70;62.90;;;;;;5057337;28;20406;-83
2021/08/27 00:52:39;;;;;;;3.22;3.03;;;16.70;63.00;;;;;;5057128;28;20040;-83
2021/08/27 00:55:06;;;;;;;3.00;2.90;;;16.60;63.00;;;;;;5054880;28;20029;-84
2021/08/27 00:57:32;;;;;;;2.90;2.80;;;16.70;63.00;;;;;;5053772;28;20374;-83
2021/08/27 00:59:58;;;;;;;2.95;2.80;;;16.60;63.00;;;;;;5057832;28;20037;-84
2021/08/27 01:02:25;;;;;;;2.97;2.88;;;16.60;63.00;;;;;;5054656;28;20045;-83
2021/08/27 01:04:52;;;;;;;2.92;2.83;;;16.60;63.00;;;;;;5055843;28;20047;-83
2021/08/27 01:07:36;;;;;;;2.65;2.53;;;16.60;63.00;;;;;;5039278;28;20017;-83
2021/08/27 01:10:31;;;;;;;3.08;2.97;;;16.60;63.10;;;;;;5054280;28;20070;-84
2021/08/27 01:13:18;;;;;;;2.95;2.85;;;16.60;63.10;;;;;;5039878;28;20021;-84
2021/08/27 01:15:59;;;;;;;3.00;2.80;;;16.50;63.20;;;;;;5036702;28;20496;-83
2021/08/27 01:18:36;;;;;;;2.67;2.58;;;16.50;63.30;;;;;;5055147;28;20035;-83
2021/08/27 01:21:37;;;;;;;2.95;2.75;;;16.40;63.40;;;;;;5056939;28;20021;-83
2021/08/27 01:24:04;;;;;;;3.60;2.90;;;16.40;63.40;;;;;;5044284;28;20402;-83
2021/08/27 01:26:34;;;;;;;19.60;2.60;;;16.30;63.50;;;;;;5039194;28;20037;-83
2021/08/27 01:29:00;;;;;;;3.03;2.88;;;16.30;63.50;;;;;;5055024;28;20524;-81
2021/08/27 01:31:52;;;;;;;4.03;2.90;;;16.30;63.60;;;;;;5038345;28;20470;-83
2021/08/27 01:34:34;;;;;;;2.60;2.50;;;16.30;63.60;;;;;;5040248;28;20393;-82
2021/08/27 01:37:00;;;;;;;2.92;2.72;;;16.20;63.50;;;;;;5053268;28;20052;-84
2021/08/27 01:39:31;;;;;;;13.15;3.15;;;16.20;63.50;;;;;;5054330;28;20044;-82
2021/08/27 01:41:57;;;;;;;2.67;2.58;;;16.20;63.50;;;;;;5089225;28;20025;-82
2021/08/27 01:44:27;;;;;;;2.47;2.38;;;16.20;63.50;;;;;;5054570;28;20056;-83
2021/08/27 01:46:55;;;;;;;3.80;3.50;;;16.20;63.40;;;;;;5038601;28;20036;-83
2021/08/27 01:49:21;;;;;;;12.98;2.80;;;16.30;63.40;;;;;;5024204;28;20037;-83
2021/08/27 01:51:47;;;;;;;2.92;2.78;;;16.20;63.40;;;;;;5034758;28;20370;-82
2021/08/27 01:54:14;;;;;;;2.85;2.75;;;16.20;63.50;;;;;;5038989;28;20025;-83
2021/08/27 01:56:40;;;;;;;2.78;2.67;;;16.20;63.60;;;;;;5056045;28;20478;-83
2021/08/27 01:59:06;;;;;;;2.85;2.70;;;16.20;63.60;;;;;;5036094;28;20048;-83
2021/08/27 02:01:33;;;;;;;2.72;2.63;;;16.10;63.60;;;;;;5046044;28;20029;-83
2021/08/27 02:04:12;;;;;;;3.22;2.90;;;16.10;63.70;;;;;;5040085;28;20033;-82
2021/08/27 02:06:38;;;;;;;2.63;2.53;;;16.00;63.70;;;;;;5048544;28;20048;-83
2021/08/27 02:09:04;;;;;;;2.70;2.60;;;16.10;63.70;;;;;;5043389;28;20402;-80
2021/08/27 02:11:31;;;;;;;2.40;2.30;;;16.10;63.60;;;;;;5041971;28;20036;-82
2021/08/27 02:13:57;;;;;;;2.70;2.60;;;16.00;63.60;;;;;;5042391;28;20033;-83
2021/08/27 02:16:23;;;;;;;2.50;2.40;;;16.00;63.70;;;;;;5017999;28;20030;-84
2021/08/27 02:18:49;;;;;;;2.55;2.45;;;16.00;63.70;;;;;;5046587;28;20037;-84
2021/08/27 02:21:15;;;;;;;4.78;3.05;;;16.00;63.70;;;;;;5034985;28;20025;-81
2021/08/27 02:23:42;;;;;;;2.75;2.65;;;16.00;63.80;;;;;;5052066;28;20029;-83
2021/08/27 02:26:10;;;;;;;2.53;2.42;;;16.00;63.90;;;;;;5034968;28;20037;-83
2021/08/27 02:28:36;;;;;;;2.60;2.50;;;15.90;63.90;;;;;;5035198;28;20025;-84
2021/08/27 02:31:02;;;;;;;2.70;2.60;;;15.90;63.90;;;;;;5032979;28;20059;-82
2021/08/27 02:33:28;;;;;;;2.67;2.58;;;15.80;63.80;;;;;;5030833;28;20486;-84
2021/08/27 02:35:54;;;;;;;2.45;2.35;;;15.90;63.90;;;;;;5056665;28;20033;-83
2021/08/27 02:38:23;;;;;;;2.70;2.60;;;15.80;64.00;;;;;;5023600;28;20497;-84
2021/08/27 02:40:49;;;;;;;2.50;2.40;;;15.90;64.00;;;;;;5037132;28;20044;-83
2021/08/27 02:43:15;;;;;;;2.70;2.60;;;15.80;64.00;;;;;;5055195;28;20035;-82
2021/08/27 02:45:41;;;;;;;2.60;2.50;;;15.80;64.00;;;;;;5050323;28;20038;-83
2021/08/27 02:48:07;;;;;;;2.85;2.75;;;15.80;64.10;;;;;;5067295;28;20031;-84
2021/08/27 02:50:48;;;;;;;2.50;2.40;;;15.70;64.10;;;;;;5054235;28;20029;-83
2021/08/27 02:53:17;;;;;;;2.55;2.45;;;15.70;64.10;;;;;;5037917;28;20032;-83
2021/08/27 02:55:45;;;;;;;2.47;2.38;;;15.70;64.20;;;;;;5022489;28;20025;-83
2021/08/27 02:58:15;;;;;;;2.50;2.40;;;15.70;64.30;;;;;;5035835;28;20028;-83
2021/08/27 03:00:54;;;;;;;2.60;2.50;;;15.70;64.50;;;;;;5033255;28;20028;-84
2021/08/27 03:03:22;;;;;;;2.95;2.75;;;15.60;64.40;;;;;;5063682;28;20044;-83
2021/08/27 03:05:48;;;;;;;2.60;2.50;;;15.60;64.30;;;;;;5088413;28;20041;-83
2021/08/27 03:08:19;;;;;;;2.72;2.63;;;15.60;64.40;;;;;;5038615;28;20494;-83
2021/08/27 03:10:48;;;;;;;3.17;2.88;;;15.60;64.30;;;;;;5053432;28;20485;-84
2021/08/27 03:13:16;;;;;;;2.60;2.50;;;15.70;64.30;;;;;;5054891;28;20029;-83
2021/08/27 03:15:53;;;;;;;2.58;2.47;;;15.70;64.20;;;;;;5049043;28;20482;-84
2021/08/27 03:18:47;;;;;;;4.07;2.83;;;15.70;64.10;;;;;;5052708;28;20502;-83
2021/08/27 03:21:35;;;;;;;2.42;2.33;;;15.70;64.10;;;;;;5064422;28;20028;-85
2021/08/27 03:24:29;;;;;;;2.58;2.47;;;15.70;64.10;;;;;;5057190;28;20037;-83
2021/08/27 03:26:57;;;;;;;2.88;2.78;;;15.60;64.10;;;;;;5058147;28;20540;-83
2021/08/27 03:29:23;;;;;;;2.80;2.60;;;15.60;64.20;;;;;;5057675;28;20370;-86
2021/08/27 03:31:49;;;;;;;3.55;3.35;;;15.60;64.20;;;;;;5040463;28;20044;-83
2021/08/27 03:34:16;;;;;;;2.67;2.58;;;15.60;64.30;;;;;;5041080;28;20063;-84
2021/08/27 03:36:42;;;;;;;2.70;2.60;;;15.60;64.40;;;;;;5035156;28;20467;-83
2021/08/27 03:39:08;;;;;;;2.72;2.63;;;15.60;64.30;;;;;;5042416;28;20032;-83
2021/08/27 03:41:37;;;;;;;2.92;2.72;;;15.50;64.30;;;;;;5057402;28;20048;-83
2021/08/27 03:44:04;;;;;;;2.88;2.78;;;15.60;64.30;;;;;;5057483;28;20043;-83
2021/08/27 03:46:30;;;;;;;2.60;2.50;;;15.60;64.20;;;;;;5040378;28;20409;-83
2021/08/27 03:48:56;;;;;;;2.60;2.50;;;15.60;64.20;;;;;;5055078;28;20033;-82
2021/08/27 03:51:23;;;;;;;3.35;3.17;;;15.60;64.20;;;;;;5056184;28;20040;-83
2021/08/27 03:53:49;;;;;;;9.20;2.75;;;15.50;64.30;;;;;;5056419;28;20033;-83
2021/08/27 03:56:15;;;;;;;2.70;2.58;;;15.50;64.40;;;;;;5058412;28;20029;-84
2021/08/27 03:58:42;;;;;;;2.70;2.60;;;15.50;64.40;;;;;;5040560;28;20056;-84
2021/08/27 04:01:08;;;;;;;2.80;2.70;;;15.50;64.40;;;;;;5057187;28;20043;-82
2021/08/27 04:03:35;;;;;;;2.63;2.53;;;15.50;64.40;;;;;;5054622;28;20037;-83
2021/08/27 04:06:01;;;;;;;3.33;2.65;;;15.50;64.50;;;;;;5058803;28;20037;-83
2021/08/27 04:08:27;;;;;;;2.70;2.60;;;15.40;64.50;;;;;;5058012;28;20033;-83
2021/08/27 04:10:53;;;;;;;3.17;3.00;;;15.40;64.50;;;;;;5057013;28;20462;-83
2021/08/27 04:13:19;;;;;;;3.33;3.10;;;15.40;64.50;;;;;;5040288;28;20031;-83
2021/08/27 04:15:46;;;;;;;2.75;2.65;;;15.40;64.50;;;;;;5052087;28;20478;-84
2021/08/27 04:18:12;;;;;;;2.60;2.50;;;15.40;64.60;;;;;;5041413;28;20040;-83
2021/08/27 04:20:38;;;;;;;2.63;2.53;;;15.40;64.60;;;;;;5058300;28;20454;-83
2021/08/27 04:23:04;;;;;;;2.70;2.60;;;15.40;64.60;;;;;;5056384;28;20025;-83
2021/08/27 04:25:30;;;;;;;2.75;2.65;;;15.30;64.60;;;;;;5057636;28;20036;-83
2021/08/27 04:27:56;;;;;;;2.45;2.25;;;15.40;64.70;;;;;;5055385;28;20386;-81
2021/08/27 04:30:22;;;;;;;2.58;2.47;;;15.30;64.70;;;;;;5056076;28;20033;-82
2021/08/27 04:32:48;;;;;;;2.58;2.47;;;15.40;64.70;;;;;;5055944;28;20481;-83
2021/08/27 04:35:14;;;;;;;2.42;2.33;;;15.30;64.60;;;;;;5057331;28;20048;-83
2021/08/27 04:37:40;;;;;;;2.90;2.72;;;15.30;64.70;;;;;;5039429;28;20450;-83
2021/08/27 04:40:09;;;;;;;2.40;2.30;;;15.30;64.60;;;;;;5055439;28;20020;-81
2021/08/27 04:42:35;;;;;;;2.33;2.22;;;15.40;64.80;;;;;;5053641;28;20037;-83
2021/08/27 04:45:02;;;;;;;2.38;2.28;;;15.30;64.60;;;;;;5057767;28;20041;-78
2021/08/27 04:47:28;;;;;;;2.38;2.28;;;15.30;64.70;;;;;;5056284;28;20027;-83
2021/08/27 04:49:54;;;;;;;3.40;3.10;;;15.30;64.70;;;;;;5057685;28;20033;-83
2021/08/27 04:52:20;;;;;;;2.55;2.45;;;15.30;64.70;;;;;;5057064;28;20020;-83
2021/08/27 04:54:46;;;;;;;2.75;2.65;;;15.30;64.80;;;;;;5052090;28;20030;-83
2021/08/27 04:57:12;;;;;;;2.55;2.45;;;15.30;64.90;;;;;;5058120;28;20029;-81
2021/08/27 04:59:42;;;;;;;2.75;2.55;;;15.30;64.90;;;;;;5056427;28;20040;-83
2021/08/27 05:02:09;;;;;;;2.63;2.53;;;15.20;64.90;;;;;;5055430;28;20041;-83
2021/08/27 05:04:35;;;;;;;2.63;2.53;;;15.20;65.00;;;;;;5055926;28;20029;-83
2021/08/27 05:07:01;;;;;;;2.40;2.20;;;15.20;65.10;;;;;;5053790;28;20036;-83
2021/08/27 05:09:27;;;;;;;2.58;2.47;;;15.10;65.10;;;;;;5053780;28;20025;-83
2021/08/27 05:11:53;;;;;;;2.45;2.35;;;15.10;65.20;;;;;;5055872;28;20037;-82
2021/08/27 05:14:19;;;;;;;3.10;2.90;;;15.10;65.30;;;;;;5056817;28;20498;-83
2021/08/27 05:16:45;;;;;;;2.67;2.55;;;15.10;65.30;;;;;;5056397;28;20040;-83
2021/08/27 05:19:12;;;;;;;2.50;2.40;;;15.00;65.20;;;;;;5056456;28;20024;-83
2021/08/27 05:21:38;;;;;;;2.28;2.17;;;15.00;65.30;;;;;;5049577;28;20048;-83
2021/08/27 05:24:05;;;;;;;4.22;3.00;;;15.00;65.30;;;;;;5090504;28;20489;-85
2021/08/27 05:26:31;;;;;;;2.55;2.45;;;15.00;65.30;;;;;;5055375;28;20036;-83
2021/08/27 05:28:57;;;;;;;2.40;2.30;;;15.00;65.30;;;;;;5038979;28;20013;-82
2021/08/27 05:31:24;;;;;;;2.97;2.58;;;15.00;65.30;;;;;;5055870;28;20043;-85
2021/08/27 05:33:50;;;;;;;2.50;2.40;;;15.00;65.30;;;;;;5051555;28;20045;-83
2021/08/27 05:36:16;;;;;;;2.60;2.50;;;14.90;65.30;;;;;;5056270;28;20036;-81
2021/08/27 05:38:42;;;;;;;2.50;2.40;;;14.90;65.30;;;;;;5055968;28;20037;-82
2021/08/27 05:41:08;;;;;;;2.42;2.33;;;15.00;65.30;;;;;;5056303;28;20029;-82
2021/08/27 05:43:34;;;;;;;2.35;2.25;;;15.00;65.30;;;;;;5055079;28;20036;-83
2021/08/27 05:46:01;;;;;;;2.50;2.40;;;15.00;65.40;;;;;;5052206;28;20059;-83
2021/08/27 05:48:27;;;;;;;3.22;3.03;;;15.00;65.40;;;;;;5052814;28;20029;-82
2021/08/27 05:50:53;;;;;;;2.50;2.40;;;15.00;65.40;;;;;;5055782;28;20025;-82
2021/08/27 05:53:19;;;;;;;2.70;2.60;;;14.90;65.40;;;;;;5054899;28;20025;-83
2021/08/27 05:55:45;;;;;;;2.55;2.45;;;14.90;65.40;;;;;;5054808;28;20410;-83
2021/08/27 05:58:11;;;;;;;2.50;2.40;;;15.00;65.50;;;;;;5055691;28;20040;-83
2021/08/27 06:00:37;;;;;;;2.30;2.20;;;14.90;65.40;;;;;;5050542;28;20482;-83
2021/08/27 06:03:03;;;;;;;2.58;2.47;;;15.00;65.50;;;;;;5057652;28;20029;-84
2021/08/27 06:05:29;;;;;;;2.78;2.58;;;15.00;65.50;;;;;;5055455;28;20048;-82
2021/08/27 06:07:55;;;;;;;2.78;2.58;;;15.00;65.40;;;;;;5054774;28;20036;-83
2021/08/27 06:10:21;;;;;;;2.55;2.40;;;15.00;65.40;;;;;;5054619;28;20040;-83
2021/08/27 06:12:48;;;;;;;10.73;2.90;;;15.10;65.50;;;;;;5049459;28;20029;-82
2021/08/27 06:15:14;;;;;;;2.72;2.63;;;15.10;65.50;;;;;;5055902;28;20462;-83
2021/08/27 06:17:40;;;;;;;2.55;2.42;;;15.10;65.50;;;;;;5053549;28;20358;-83
2021/08/27 06:20:07;;;;;;;2.40;2.30;;;15.20;66.20;;;;;;5055740;28;20036;-83
2021/08/27 06:22:33;;;;;;;2.55;2.45;;;15.30;65.40;;;;;;5055572;28;20033;-83
2021/08/27 06:24:59;;;;;;;2.60;2.50;;;15.40;65.20;;;;;;5035773;28;20041;-83
2021/08/27 06:27:26;;;;;;;5.38;3.33;;;15.40;65.10;;;;;;5054083;28;20029;-83
2021/08/27 06:29:52;;;;;;;2.67;2.58;;;15.50;65.10;;;;;;5055307;28;20025;-83
2021/08/27 06:32:18;;;;;;;2.50;2.40;;;15.50;65.20;;;;;;5055080;28;20041;-82
2021/08/27 06:34:44;;;;;;;2.80;2.70;;;15.50;65.20;;;;;;5053780;28;20040;-82
2021/08/27 06:37:10;;;;;;;2.70;2.60;;;15.50;65.20;;;;;;5054699;28;20032;-83
2021/08/27 06:39:36;;;;;;;3.10;3.00;;;15.70;65.00;;;;;;5051404;28;20397;-84
2021/08/27 06:42:03;;;;;;;2.78;2.67;;;15.90;64.70;;;;;;5057459;28;20389;-83
2021/08/27 06:44:29;;;;;;;2.63;2.53;;;16.20;64.40;;;;;;5055367;28;20033;-83
2021/08/27 06:46:56;;;;;;;2.90;2.80;;;16.40;64.00;;;;;;5054696;28;20044;-83
2021/08/27 06:49:22;;;;;;;7.82;3.97;;;16.50;63.70;;;;;;5054747;28;20028;-83
2021/08/27 06:51:48;;;;;;;3.28;3.08;;;16.70;63.50;;;;;;5034726;28;20040;-83
2021/08/27 06:54:14;;;;;;;4.47;4.28;;;16.80;63.30;;;;;;5055904;28;20029;-83
2021/08/27 06:56:40;;;;;;;4.57;4.38;;;16.90;63.10;;;;;;5054072;28;20036;-83
2021/08/27 06:59:06;;;;;;;4.35;4.15;;;17.00;63.20;;;;;;5053829;28;20029;-83
2021/08/27 07:01:32;;;;;;;4.57;4.38;;;17.10;63.30;;;;;;5053480;28;20032;-83
2021/08/27 07:03:58;;;;;;;5.18;4.80;;;17.20;63.20;;;;;;5052411;28;20040;-81
2021/08/27 07:06:24;;;;;;;4.57;4.38;;;17.30;63.00;;;;;;5036008;28;20044;-83
2021/08/27 07:08:50;;;;;;;3.63;3.45;;;17.40;62.80;;;;;;5054463;28;20028;-81
2021/08/27 07:11:16;;;;;;;4.40;4.20;;;17.50;62.70;;;;;;5053718;28;20399;-83
2021/08/27 07:13:43;;;;;;;5.47;5.22;;;17.70;63.40;;;;;;5054655;28;20033;-83
2021/08/27 07:16:09;;;;;;;3.35;3.25;;;17.80;62.40;;;;;;5053985;28;20060;-83
2021/08/27 07:18:36;;;;;;;3.17;3.08;;;17.90;62.20;;;;;;5050861;28;20033;-82
2021/08/27 07:21:02;;;;;;;3.28;3.13;;;18.00;62.10;;;;;;5055306;28;20060;-83
2021/08/27 07:23:28;;;;;;;3.72;3.53;;;18.10;62.10;;;;;;5054880;28;20037;-83
2021/08/27 07:25:54;;;;;;;3.70;3.50;;;18.10;63.00;;;;;;5053609;28;20043;-83
2021/08/27 07:28:20;;;;;;;3.70;3.50;;;18.20;62.10;;;;;;5054785;28;20039;-84
2021/08/27 07:30:46;;;;;;;3.20;3.10;;;18.30;61.90;;;;;;5047666;28;20041;-83
2021/08/27 07:33:12;;;;;;;4.10;3.90;;;18.50;61.70;;;;;;5037764;28;20045;-83
2021/08/27 07:35:38;;;;;;;3.70;3.50;;;18.70;61.40;;;;;;5055168;28;20037;-81
2021/08/27 07:38:05;;;;;;;4.35;4.10;;;18.70;61.30;;;;;;5054600;28;20025;-84
2021/08/27 07:40:31;;;;;;;5.00;4.65;;;18.70;61.30;;;;;;5053318;28;20389;-83
2021/08/27 07:42:58;;;;;;;4.30;4.10;;;18.70;61.30;;;;;;5052107;28;20025;-82
2021/08/27 07:45:24;;;;;;;4.50;4.30;;;18.70;61.30;;;;;;5052374;28;20044;-87
2021/08/27 07:47:50;;;;;;;6.80;6.50;;;18.80;61.40;;;;;;5052985;28;20033;-83
2021/08/27 07:50:16;;;;;;;4.88;4.68;;;18.90;61.10;;;;;;5036902;28;20029;-84
2021/08/27 07:52:42;;;;;;;4.82;4.63;;;18.90;61.10;;;;;;5054310;28;20029;-85
2021/08/27 07:55:09;;;;;;;4.00;3.80;;;18.90;61.10;;;;;;5052779;28;20029;-84
2021/08/27 07:57:43;;;;;;;4.47;4.28;;;18.90;61.20;;;;;;5032837;28;20036;-84
2021/08/27 08:00:09;;;;;;;6.38;6.07;;;19.10;61.20;;;;;;5063188;28;20503;-83
2021/08/27 08:02:36;;;;;;;6.50;6.20;;;19.10;60.90;;;;;;5053379;28;20021;-84
2021/08/27 08:05:02;;;;;;;6.63;6.32;;;19.30;60.60;;;;;;5036270;28;20033;-84
2021/08/27 08:07:28;;;;;;;7.20;6.90;;;19.40;60.40;;;;;;5053150;28;20044;-84
2021/08/27 08:09:54;;;;;;;6.93;6.57;;;19.40;60.30;;;;;;5051241;28;20394;-85
2021/08/27 08:12:20;;;;;;;7.10;6.80;;;19.40;61.10;;;;;;5056147;28;20044;-83
2021/08/27 08:14:46;;;;;;;7.10;6.80;;;19.50;60.30;;;;;;5058825;28;20036;-84
2021/08/27 08:17:12;;;;;;;5.15;4.95;;;19.60;60.00;;;;;;5057687;28;20036;-84
2021/08/27 08:19:38;;;;;;;4.40;4.20;;;19.80;59.90;;;;;;5041623;28;20386;-82
2021/08/27 08:22:05;;;;;;;4.40;4.20;;;19.90;59.70;;;;;;5055368;28;20055;-85
2021/08/27 08:24:31;;;;;;;4.35;4.15;;;20.00;59.50;;;;;;5054824;28;20501;-84
2021/08/27 08:26:57;;;;;;;4.45;4.25;;;20.10;59.40;;;;;;5058218;28;20110;-84
2021/08/27 08:29:23;;;;;;;5.85;5.55;;;20.30;59.30;;;;;;5056800;28;20389;-84
2021/08/27 08:31:51;;;;;;;7.13;6.80;;;20.50;58.90;;;;;;5057278;28;20040;-84
2021/08/27 08:34:17;;;;;;;6.10;5.80;;;20.50;58.70;;;;;;5056535;28;20044;-84
2021/08/27 08:36:43;;;;;;;6.50;6.13;;;20.60;58.50;;;;;;5036109;28;20064;-86
2021/08/27 08:39:09;;;;;;;5.97;5.68;;;20.70;58.40;;;;;;5059286;28;20021;-84
2021/08/27 08:41:35;;;;;;;5.85;5.55;;;20.80;58.30;;;;;;5057752;28;20371;-83
2021/08/27 08:44:01;;;;;;;5.72;5.43;;;20.90;58.20;;;;;;5057272;28;20029;-85
2021/08/27 08:46:27;;;;;;;5.88;5.57;;;21.10;58.00;;;;;;5055649;28;20036;-85
2021/08/27 08:48:54;;;;;;;5.40;5.10;;;21.10;57.80;;;;;;5051858;28;20028;-84
2021/08/27 08:51:24;;;;;;;5.13;4.93;;;21.20;57.70;;;;;;5055722;28;20073;-85
2021/08/27 08:53:50;;;;;;;5.72;5.43;;;21.30;57.40;;;;;;5091174;28;20032;-85
2021/08/27 08:56:17;;;;;;;6.35;6.05;;;21.40;57.20;;;;;;5056080;28;20036;-84
2021/08/27 08:58:44;;;;;;;6.60;6.30;;;21.60;57.00;;;;;;5057285;28;20045;-85
2021/08/27 09:01:17;;;;;;;6.35;6.05;;;21.70;56.50;;;;;;5038621;28;20047;-84
2021/08/27 09:03:46;;;;;;;7.78;7.35;;;21.70;56.40;;;;;;5018944;28;20041;-85
2021/08/27 09:06:13;;;;;;;6.20;5.90;;;21.80;56.20;;;;;;5040575;28;20056;-85
2021/08/27 09:08:43;;;;;;;7.63;6.95;;;21.80;56.10;;;;;;5063509;28;20044;-86
2021/08/27 09:11:23;;;;;;;6.10;5.80;;;21.80;55.80;;;;;;5060857;28;20025;-85
2021/08/27 09:13:51;;;;;;;6.50;6.20;;;21.90;56.00;;;;;;5056555;28;20021;-83
2021/08/27 09:16:17;;;;;;;5.70;5.40;;;22.00;55.70;;;;;;5056521;28;20024;-85
2021/08/27 09:18:46;;;;;;;7.10;6.78;;;22.10;55.50;;;;;;5034962;28;20033;-84
2021/08/27 09:21:40;;;;;;;7.07;6.78;;;22.20;55.30;;;;;;5039467;28;20509;-85
2021/08/27 09:24:09;;;;;;;7.13;6.80;;;22.30;55.20;;;;;;5059048;28;20482;-85
2021/08/27 09:26:38;;;;;;;6.00;5.70;;;22.40;55.00;;;;;;5056788;28;20048;-84
2021/08/27 09:29:04;;;;;;;6.13;5.82;;;22.60;54.80;;;;;;5059016;28;20021;-84
2021/08/27 09:31:31;;;;;;;6.32;6.03;;;22.90;54.40;;;;;;5034787;28;20029;-84
2021/08/27 09:33:58;;;;;;;5.70;5.40;;;23.10;54.00;;;;;;5066558;28;20051;-86
2021/08/27 09:36:24;;;;;;;5.72;5.45;;;23.30;53.60;;;;;;5054077;28;20045;-84
2021/08/27 09:39:03;;;;;;;6.43;6.13;;;23.40;53.40;;;;;;5055013;28;20025;-85
2021/08/27 09:41:29;;;;;;;7.72;7.28;;;23.60;53.10;;;;;;5055120;28;20072;-85
2021/08/27 09:43:56;;;;;;;7.60;7.18;;;23.70;52.80;;;;;;5054916;28;20033;-85
2021/08/27 09:46:29;;;;;;;6.43;6.13;;;23.80;52.50;;;;;;5054468;28;20048;-84
2021/08/27 09:48:55;;;;;;;7.53;6.72;;;23.80;52.30;;;;;;5052347;28;20025;-84
2021/08/27 09:51:46;;;;;;;6.85;6.55;;;23.80;52.20;;;;;;5055643;28;20118;-84
2021/08/27 09:54:31;;;;;;;6.63;6.32;;;23.80;52.40;;;;;;5048054;28;20389;-85
2021/08/27 09:56:59;;;;;;;6.30;6.00;;;23.80;52.30;;;;;;5056393;28;20386;-84
2021/08/27 09:59:38;;;;;;;7.22;6.78;;;23.80;52.00;;;;;;5054907;28;20032;-84
2021/08/27 10:02:06;;;;;;;6.65;6.35;;;23.70;52.00;;;;;;5054269;28;20052;-84
2021/08/27 10:04:32;;;;;;;7.75;6.47;;;23.70;52.00;;;;;;5038175;28;20040;-85
2021/08/27 10:06:58;;;;;;;6.50;6.20;;;23.60;52.10;;;;;;5052447;28;20052;-83
2021/08/27 10:09:44;;;;;;;6.15;5.85;;;23.60;51.90;;;;;;5053029;28;20029;-82
2021/08/27 10:12:11;;;;;;;6.40;6.03;;;23.60;51.70;;;;;;5095814;28;20040;-83
2021/08/27 10:14:37;;;;;;;5.75;5.45;;;23.40;51.70;;;;;;5054556;28;20036;-84
2021/08/27 10:17:04;;;;;;;6.50;6.10;;;23.20;51.80;;;;;;5054176;28;20029;-83
2021/08/27 10:19:31;;;;;;;5.68;5.38;;;23.00;52.00;;;;;;5052233;28;20029;-83
2021/08/27 10:21:57;;;;;;;5.50;5.22;;;23.00;52.20;;;;;;5064506;28;20061;-84
2021/08/27 10:24:24;;;;;;;6.53;6.13;;;23.00;52.20;;;;;;5036735;28;20033;-84
2021/08/27 10:26:50;;;;;;;6.35;5.78;;;23.20;51.80;;;;;;5072246;28;20402;-84
2021/08/27 10:29:16;;;;;;;5.80;5.50;;;23.40;51.50;;;;;;5054157;28;20021;-84
2021/08/27 10:31:51;;;;;;;6.22;5.93;;;23.40;51.40;;;;;;5034956;28;20033;-84
2021/08/27 10:34:37;;;;;;;6.50;6.20;;;23.40;51.40;;;;;;5053844;28;20040;-83
2021/08/27 10:37:03;;;;;;;5.43;5.22;;;23.50;51.30;;;;;;5053661;28;20029;-85
2021/08/27 10:39:40;;;;;;;6.00;5.70;;;23.60;51.00;;;;;;5034601;28;20211;-83
2021/08/27 10:42:07;;;;;;;6.70;6.30;;;23.60;50.80;;;;;;5056023;28;20039;-83
2021/08/27 10:44:47;;;;;;;6.35;6.05;;;23.60;50.70;;;;;;5029207;28;20055;-84
2021/08/27 10:47:13;;;;;;;7.07;6.68;;;23.60;50.60;;;;;;5038792;28;20037;-84
2021/08/27 10:49:46;;;;;;;14.27;6.70;;;23.50;50.40;;;;;;5054087;28;20025;-84
2021/08/27 10:52:30;;;;;;;5.95;5.65;;;23.60;50.20;;;;;;5053689;28;20047;-84
2021/08/27 10:55:03;;;;;;;6.63;6.32;;;23.60;49.70;;;;;;5036769;28;20017;-84
2021/08/27 10:57:29;;;;;;;6.45;6.15;;;23.60;49.60;;;;;;5053293;28;20028;-84
2021/08/27 10:59:59;;;;;;;6.80;6.30;;;23.50;49.50;;;;;;5055736;28;20033;-84
2021/08/27 11:02:25;;;;;;;6.95;6.45;;;23.40;49.60;;;;;;5051364;28;20382;-81
2021/08/27 11:04:51;;;;;;;5.95;5.55;;;23.20;49.90;;;;;;5037265;28;20040;-84
2021/08/27 11:07:20;;;;;;;5.85;5.55;;;23.10;50.20;;;;;;5053420;28;20044;-84
2021/08/27 11:09:59;;;;;;;6.10;5.80;;;23.10;50.30;;;;;;5033170;28;20041;-84
2021/08/27 11:12:31;;;;;;;5.68;5.38;;;23.00;50.20;;;;;;5052938;28;20037;-83
2021/08/27 11:15:24;;;;;;;5.22;5.03;;;23.00;50.40;;;;;;5055451;28;20485;-82
2021/08/27 11:18:20;;;;;;;6.38;5.88;;;23.10;50.40;;;;;;5055641;28;20095;-84
2021/08/27 11:20:47;;;;;;;7.13;6.15;;;23.30;50.20;;;;;;5054579;28;20045;-85
2021/08/27 11:23:13;;;;;;;5.90;5.60;;;23.50;50.00;;;;;;5053240;28;20037;-84
2021/08/27 11:25:41;;;;;;;6.60;6.30;;;23.70;50.10;;;;;;5052088;28;20262;-84
2021/08/27 11:28:15;;;;;;;6.55;6.25;;;23.90;49.20;;;;;;5036064;28;20040;-84
2021/08/27 11:30:59;;;;;;;6.00;5.70;;;23.80;48.90;;;;;;5034036;28;20044;-84
2021/08/27 11:33:41;;;;;;;5.75;5.45;;;23.60;49.00;;;;;;5065571;28;20035;-83
2021/08/27 11:36:10;;;;;;;5.45;5.15;;;23.40;49.30;;;;;;5056486;28;20041;-83
2021/08/27 11:38:36;;;;;;;4.93;4.70;;;23.30;49.40;;;;;;5036771;28;20033;-83
2021/08/27 11:41:03;;;;;;;5.55;5.25;;;23.20;49.50;;;;;;5035530;28;20362;-84
2021/08/27 11:43:47;;;;;;;6.38;6.07;;;23.20;49.50;;;;;;5054604;28;20024;-85
2021/08/27 11:46:14;;;;;;;6.20;5.90;;;23.20;49.30;;;;;;5055953;28;20036;-85
2021/08/27 11:48:40;;;;;;;5.75;5.45;;;23.10;49.40;;;;;;5054131;28;20033;-83
2021/08/27 11:51:10;;;;;;;6.03;5.72;;;23.10;49.60;;;;;;5059509;28;20028;-84
2021/08/27 11:53:36;;;;;;;5.57;5.30;;;23.10;49.50;;;;;;5041080;28;20017;-84
2021/08/27 11:56:02;;;;;;;5.78;5.47;;;23.10;49.40;;;;;;5040710;28;20040;-84
2021/08/27 11:58:42;;;;;;;5.72;5.43;;;23.10;49.40;;;;;;5058352;28;20024;-85
2021/08/27 12:01:08;;;;;;;5.18;4.97;;;23.20;49.20;;;;;;5055703;28;20037;-87
2021/08/27 12:03:34;;;;;;;5.50;5.30;;;23.40;48.90;;;;;;5036705;28;20033;-84
2021/08/27 12:06:00;;;;;;;5.47;5.22;;;23.40;48.70;;;;;;5074438;28;20040;-84
2021/08/27 12:08:29;;;;;;;6.32;5.82;;;23.40;48.80;;;;;;5056592;28;20029;-84
2021/08/27 12:10:55;;;;;;;5.18;4.97;;;23.30;49.00;;;;;;5056991;28;20029;-84
2021/08/27 12:13:21;;;;;;;4.68;4.38;;;23.20;49.10;;;;;;5056912;28;20033;-84
2021/08/27 12:15:47;;;;;;;5.20;5.00;;;23.20;49.00;;;;;;5052573;28;20044;-84
2021/08/27 12:18:15;;;;;;;5.30;5.10;;;23.20;49.10;;;;;;5059007;28;20036;-83
2021/08/27 12:20:45;;;;;;;5.82;5.53;;;23.10;49.20;;;;;;5056815;28;20020;-83
2021/08/27 12:23:20;;;;;;;6.00;5.70;;;23.00;49.20;;;;;;5057970;28;20020;-84
2021/08/27 12:25:54;;;;;;;5.30;5.10;;;23.00;49.30;;;;;;5041431;28;20025;-84
2021/08/27 12:28:20;;;;;;;5.68;5.38;;;23.00;49.20;;;;;;5057739;28;20044;-83
2021/08/27 12:30:51;;;;;;;5.60;5.30;;;23.10;49.00;;;;;;5035714;28;20045;-84
2021/08/27 12:33:18;;;;;;;6.00;5.70;;;23.30;48.70;;;;;;5057669;28;20037;-85
2021/08/27 12:35:44;;;;;;;5.53;5.22;;;23.40;48.60;;;;;;5058117;28;20397;-83
2021/08/27 12:38:10;;;;;;;5.75;5.45;;;23.60;48.30;;;;;;5056625;28;20478;-83
2021/08/27 12:40:36;;;;;;;5.53;5.32;;;23.70;48.30;;;;;;5039707;28;20032;-83
2021/08/27 12:43:06;;;;;;;6.18;5.88;;;23.80;48.20;;;;;;5054339;28;20481;-84
2021/08/27 12:45:41;;;;;;;8.63;5.68;;;23.90;48.00;;;;;;5035991;28;20502;-84
2021/08/27 12:48:08;;;;;;;5.55;5.32;;;24.00;47.80;;;;;;5069709;28;20485;-84
2021/08/27 12:50:47;;;;;;;5.10;4.90;;;24.00;47.80;;;;;;5057351;28;20040;-84
2021/08/27 12:53:13;;;;;;;5.68;5.38;;;23.90;48.00;;;;;;5057350;28;20029;-84